N668LT CYXU-CYXU
Flight info
| Callsign | N668LT |
|---|---|
| Flight time | 0h 3m |
| Altitude | 1900 |
| Route | CYXU/09 VFR CIRCUTS |
| Aircraft | C152 |
Departure
| Time | 2026-04-25 02:49 |
|---|---|
| Airport | London International Airport (CYXU) |
Arrival
| Time | 2026-04-25 02:53 |
|---|---|
| Airport | London International Airport (CYXU) |
| Time | Latitude | Longitude | Altitude | Speed | Heading |
|---|---|---|---|---|---|
| 2026-04-25 02:43 | 43.03574 | -81.16432 | 909 ft | 0 kts | 333° |
| 2026-04-25 02:44 | 43.03577 | -81.16438 | 909 ft | 3 kts | 269° |
| 2026-04-25 02:45 | 43.03571 | -81.16502 | 908 ft | 8 kts | 296° |
| 2026-04-25 02:45 | 43.03593 | -81.16478 | 909 ft | 10 kts | 74° |
| 2026-04-25 02:45 | 43.03608 | -81.16412 | 910 ft | 10 kts | 79° |
| 2026-04-25 02:45 | 43.03626 | -81.16294 | 910 ft | 14 kts | 66° |
| 2026-04-25 02:46 | 43.03688 | -81.16277 | 910 ft | 8 kts | 349° |
| 2026-04-25 02:46 | 43.03732 | -81.16289 | 910 ft | 0 kts | 342° |
| 2026-04-25 02:47 | 43.03775 | -81.16299 | 910 ft | 13 kts | 354° |
| 2026-04-25 02:47 | 43.03826 | -81.16229 | 911 ft | 10 kts | 78° |
| 2026-04-25 02:47 | 43.03828 | -81.16219 | 911 ft | 0 kts | 79° |
| 2026-04-25 02:48 | 43.03836 | -81.16157 | 910 ft | 28 kts | 78° |
| 2026-04-25 02:48 | 43.03898 | -81.15678 | 936 ft | 66 kts | 81° |
| 2026-04-25 02:49 | 43.03960 | -81.15112 | 1198 ft | 57 kts | 77° |
| 2026-04-25 02:49 | 43.04047 | -81.14607 | 1411 ft | 54 kts | 79° |
| 2026-04-25 02:49 | 43.04272 | -81.14206 | 1618 ft | 63 kts | 27° |
| 2026-04-25 02:49 | 43.04757 | -81.14502 | 1776 ft | 92 kts | 313° |
| 2026-04-25 02:50 | 43.04887 | -81.15378 | 1952 ft | 98 kts | 258° |
| 2026-04-25 02:50 | 43.04799 | -81.16352 | 2009 ft | 105 kts | 256° |
| 2026-04-25 02:50 | 43.04733 | -81.17266 | 1847 ft | 92 kts | 259° |
| 2026-04-25 02:50 | 43.04653 | -81.18071 | 1768 ft | 80 kts | 257° |
| 2026-04-25 02:51 | 43.04538 | -81.18891 | 1875 ft | 93 kts | 257° |
| 2026-04-25 02:51 | 43.04429 | -81.19820 | 1956 ft | 98 kts | 253° |
| 2026-04-25 02:51 | 43.04316 | -81.20695 | 1963 ft | 91 kts | 252° |
| 2026-04-25 02:51 | 43.04224 | -81.21561 | 1953 ft | 90 kts | 256° |
| 2026-04-25 02:52 | 43.04072 | -81.22329 | 1959 ft | 77 kts | 223° |
| 2026-04-25 02:52 | 43.03625 | -81.22599 | 1793 ft | 68 kts | 167° |
| 2026-04-25 02:52 | 43.03257 | -81.22366 | 1643 ft | 54 kts | 118° |
| 2026-04-25 02:52 | 43.03211 | -81.21863 | 1537 ft | 53 kts | 91° |
| 2026-04-25 02:53 | 43.03222 | -81.21402 | 1594 ft | 41 kts | 86° |
| 2026-04-25 02:53 | 43.03252 | -81.21029 | 1594 ft | 42 kts | 86° |
| 2026-04-25 02:53 | 43.03285 | -81.20623 | 1662 ft | 45 kts | 83° |
| 2026-04-25 02:53 | 43.03324 | -81.20191 | 1721 ft | 47 kts | 85° |
| 2026-04-25 02:54 | 43.03385 | -81.19723 | 1727 ft | 54 kts | 85° |
| 2026-04-25 02:54 | 43.03443 | -81.19229 | 1634 ft | 50 kts | 84° |
| 2026-04-25 02:54 | 43.03496 | -81.18784 | 1523 ft | 46 kts | 84° |
| 2026-04-25 02:54 | 43.03536 | -81.18343 | 1449 ft | 52 kts | 83° |
| 2026-04-25 02:55 | 43.03612 | -81.17825 | 1358 ft | 55 kts | 81° |
| 2026-04-25 02:55 | 43.03669 | -81.17353 | 1228 ft | 45 kts | 80° |
| 2026-04-25 02:55 | 43.03707 | -81.16954 | 1125 ft | 42 kts | 77° |
| 2026-04-25 02:55 | 43.03792 | -81.16532 | 1014 ft | 54 kts | 77° |
| 2026-04-25 02:56 | 43.03852 | -81.16075 | 925 ft | 42 kts | 73° |
| 2026-04-25 02:56 | 43.03890 | -81.15792 | 911 ft | 12 kts | 89° |
| 2026-04-25 02:56 | 43.03911 | -81.15630 | 910 ft | 23 kts | 78° |